createdAt,value
2022-10-05T00:01:49.248Z,20.20
2022-10-05T00:04:16.477Z,20.20
2022-10-05T00:06:44.628Z,20.10
2022-10-05T00:09:21.141Z,20.10
2022-10-05T00:11:49.063Z,20.10
2022-10-05T00:14:26.493Z,20.20
2022-10-05T00:16:53.583Z,20.10
2022-10-05T00:19:31.026Z,20.20
2022-10-05T00:22:17.418Z,20.20
2022-10-05T00:24:45.413Z,20.10
2022-10-05T00:27:22.952Z,20.10
2022-10-05T00:29:51.166Z,20.10
2022-10-05T00:32:18.615Z,20.10
2022-10-05T00:34:46.585Z,20.10
2022-10-05T00:37:13.744Z,20.10
2022-10-05T00:39:41.166Z,20.10
2022-10-05T00:42:20.014Z,20.10
2022-10-05T00:44:52.474Z,20.00
2022-10-05T00:47:34.812Z,20.00
2022-10-05T00:50:14.598Z,20.00
2022-10-05T00:52:50.938Z,20.00
2022-10-05T00:55:17.986Z,20.00
2022-10-05T00:58:09.840Z,20.00
2022-10-05T01:00:42.961Z,20.00
2022-10-05T01:03:21.095Z,20.00
2022-10-05T01:05:57.214Z,20.00
2022-10-05T01:08:50.520Z,20.00
2022-10-05T01:11:26.653Z,20.00
2022-10-05T01:13:53.645Z,20.00
2022-10-05T01:16:29.902Z,19.90
2022-10-05T01:19:15.916Z,19.90
2022-10-05T01:21:48.574Z,19.90
2022-10-05T01:24:34.252Z,19.90
2022-10-05T01:27:11.720Z,19.90
2022-10-05T01:29:46.202Z,19.90
2022-10-05T01:32:18.473Z,19.90
2022-10-05T01:34:53.381Z,19.90
2022-10-05T01:37:42.707Z,19.90
2022-10-05T01:40:19.244Z,19.90
2022-10-05T01:42:55.378Z,19.90
2022-10-05T01:45:22.382Z,19.90
2022-10-05T01:47:49.759Z,19.80
2022-10-05T01:50:19.997Z,19.80
2022-10-05T01:52:59.455Z,19.80
2022-10-05T01:55:32.407Z,19.80
2022-10-05T01:57:59.463Z,19.80
2022-10-05T02:00:27.967Z,19.80
2022-10-05T02:03:14.176Z,19.80
2022-10-05T02:05:46.879Z,19.80
2022-10-05T02:08:32.475Z,19.80
2022-10-05T02:11:01.083Z,19.80
2022-10-05T02:13:38.163Z,19.80
2022-10-05T02:16:23.293Z,19.70
2022-10-05T02:18:53.808Z,19.70
2022-10-05T02:21:21.356Z,19.70
2022-10-05T02:23:50.416Z,19.70
2022-10-05T02:26:18.736Z,19.70
2022-10-05T02:28:48.502Z,19.70
2022-10-05T02:31:18.848Z,19.70
2022-10-05T02:33:48.484Z,19.70
2022-10-05T02:36:29.343Z,19.70
2022-10-05T02:38:56.404Z,19.70
2022-10-05T02:41:41.885Z,19.70
2022-10-05T02:44:17.076Z,19.70
2022-10-05T02:46:44.495Z,19.70
2022-10-05T02:49:20.455Z,19.70
2022-10-05T02:52:22.894Z,19.70
2022-10-05T02:54:54.461Z,19.70
2022-10-05T02:57:26.888Z,19.70
2022-10-05T03:00:03.155Z,19.70
2022-10-05T03:02:41.562Z,19.70
2022-10-05T03:05:12.907Z,19.70
2022-10-05T03:07:49.351Z,19.60
2022-10-05T03:10:26.675Z,19.60
2022-10-05T03:13:24.035Z,19.60
2022-10-05T03:15:51.506Z,19.60
2022-10-05T03:18:39.138Z,19.60
2022-10-05T03:21:21.434Z,19.60
2022-10-05T03:24:04.535Z,19.60
2022-10-05T03:26:40.701Z,19.60
2022-10-05T03:29:13.744Z,19.60
2022-10-05T03:31:48.754Z,19.70
2022-10-05T03:34:20.128Z,19.70
2022-10-05T03:37:02.531Z,19.70
2022-10-05T03:39:46.848Z,19.70
2022-10-05T03:42:17.192Z,19.70
2022-10-05T03:44:49.260Z,19.70
2022-10-05T03:47:23.350Z,19.70
2022-10-05T03:50:03.912Z,19.70
2022-10-05T03:52:32.279Z,19.70
2022-10-05T03:55:13.296Z,19.80
2022-10-05T03:57:41.017Z,19.90
2022-10-05T04:00:19.551Z,20.00
2022-10-05T04:03:04.911Z,20.00
2022-10-05T04:05:52.371Z,20.20
2022-10-05T04:08:23.037Z,20.20
2022-10-05T04:10:51.836Z,20.30
2022-10-05T04:13:34.326Z,20.40
2022-10-05T04:16:15.930Z,20.30
2022-10-05T04:18:54.935Z,20.40
2022-10-05T04:21:30.848Z,20.40
2022-10-05T04:24:18.444Z,20.30
2022-10-05T04:26:52.143Z,20.40
2022-10-05T04:29:29.764Z,20.40
2022-10-05T04:32:09.244Z,20.40
2022-10-05T04:34:47.328Z,20.40
2022-10-05T04:37:19.219Z,20.40
2022-10-05T04:39:55.700Z,20.40
2022-10-05T04:42:28.156Z,20.40
2022-10-05T04:45:08.517Z,20.40
2022-10-05T04:47:45.405Z,20.40
2022-10-05T04:50:21.761Z,20.40
2022-10-05T04:53:16.584Z,20.40
2022-10-05T04:55:52.113Z,20.40
2022-10-05T04:58:19.552Z,20.30
2022-10-05T05:00:46.725Z,20.30
2022-10-05T05:03:32.961Z,20.30
2022-10-05T05:06:18.521Z,20.30
2022-10-05T05:08:58.957Z,20.40
2022-10-05T05:11:45.254Z,20.50
2022-10-05T05:14:30.522Z,20.50
2022-10-05T05:17:27.023Z,20.50
2022-10-05T05:19:57.167Z,20.50
2022-10-05T05:22:43.438Z,20.60
2022-10-05T05:25:30.093Z,20.60
2022-10-05T05:27:57.546Z,20.70
2022-10-05T05:30:33.863Z,20.70
2022-10-05T05:33:22.963Z,20.70
2022-10-05T05:36:04.371Z,20.70
2022-10-05T05:38:34.308Z,20.70
2022-10-05T05:41:09.817Z,20.70
2022-10-05T05:43:57.316Z,20.70
2022-10-05T05:46:38.836Z,20.60
2022-10-05T05:49:21.665Z,20.60
2022-10-05T05:51:51.979Z,20.60
2022-10-05T05:54:22.579Z,20.60
2022-10-05T05:56:52.900Z,20.60
2022-10-05T05:59:32.818Z,20.60
2022-10-05T06:02:06.025Z,20.50
2022-10-05T06:04:36.603Z,20.50
2022-10-05T06:07:05.029Z,20.50
2022-10-05T06:09:34.048Z,20.50
2022-10-05T06:12:23.283Z,20.50
2022-10-05T06:15:09.963Z,20.50
2022-10-05T06:17:45.511Z,20.50
2022-10-05T06:20:27.400Z,20.40
2022-10-05T06:22:58.419Z,20.40
2022-10-05T06:25:31.371Z,20.40
2022-10-05T06:28:16.107Z,20.40
2022-10-05T06:31:00.723Z,20.40
2022-10-05T06:33:53.529Z,20.40
2022-10-05T06:36:44.820Z,20.40
2022-10-05T06:39:36.420Z,20.40
2022-10-05T06:42:09.531Z,20.40
2022-10-05T06:45:01.124Z,20.30
2022-10-05T06:47:42.318Z,20.30
2022-10-05T06:50:42.550Z,20.20
2022-10-05T06:53:35.297Z,20.30
2022-10-05T06:56:07.488Z,20.30
2022-10-05T06:58:54.257Z,20.30
2022-10-05T07:01:48.843Z,20.20
2022-10-05T07:04:16.413Z,20.20
2022-10-05T07:06:47.530Z,20.20
2022-10-05T07:09:21.035Z,20.20
2022-10-05T07:12:05.232Z,20.20
2022-10-05T07:14:58.370Z,20.20
2022-10-05T07:17:29.095Z,20.10
2022-10-05T07:20:10.329Z,20.00
2022-10-05T07:22:44.449Z,20.00
2022-10-05T07:25:15.455Z,20.00
2022-10-05T07:27:51.825Z,20.00
2022-10-05T07:30:19.991Z,20.10
2022-10-05T07:32:54.890Z,20.10
2022-10-05T07:35:53.916Z,20.20
2022-10-05T07:38:26.402Z,20.10
2022-10-05T07:41:03.342Z,20.20
2022-10-05T07:44:00.533Z,20.10
2022-10-05T07:46:28.283Z,20.20
2022-10-05T07:49:05.365Z,20.20
2022-10-05T07:51:45.222Z,20.20
2022-10-05T07:54:20.344Z,20.20
2022-10-05T07:57:09.581Z,20.10
2022-10-05T07:59:39.861Z,20.10
2022-10-05T08:02:14.988Z,20.10
2022-10-05T08:04:51.322Z,20.10
2022-10-05T08:07:18.483Z,20.10
2022-10-05T08:09:49.273Z,20.10
2022-10-05T08:12:39.451Z,20.10
2022-10-05T08:15:17.810Z,20.10
2022-10-05T08:17:50.525Z,20.20
2022-10-05T08:20:29.860Z,20.30
2022-10-05T08:23:00.866Z,20.30
2022-10-05T08:25:40.961Z,20.40
2022-10-05T08:28:20.797Z,20.40
2022-10-05T08:30:53.479Z,20.50
2022-10-05T08:33:21.194Z,20.60
2022-10-05T08:36:08.543Z,20.70
2022-10-05T08:38:36.099Z,20.70
2022-10-05T08:41:23.376Z,20.70
2022-10-05T08:44:11.296Z,20.80
2022-10-05T08:47:02.263Z,20.80
2022-10-05T08:49:35.220Z,20.80
2022-10-05T08:52:08.784Z,20.80
2022-10-05T08:54:45.226Z,20.80
2022-10-05T08:57:28.538Z,20.70
2022-10-05T09:00:07.613Z,20.70
2022-10-05T09:02:40.701Z,20.70
2022-10-05T09:05:19.819Z,20.70
2022-10-05T09:07:47.055Z,20.70
2022-10-05T09:10:16.831Z,20.60
2022-10-05T09:13:02.825Z,20.70
2022-10-05T09:15:35.056Z,20.60
2022-10-05T09:18:14.097Z,20.60
2022-10-05T09:20:47.319Z,20.60
2022-10-05T09:23:32.708Z,20.60
2022-10-05T09:26:06.803Z,20.50
2022-10-05T09:28:36.873Z,20.50
2022-10-05T09:31:12.603Z,20.50
2022-10-05T09:33:51.917Z,20.50
2022-10-05T09:36:25.142Z,20.50
2022-10-05T09:39:13.693Z,20.50
2022-10-05T09:41:54.569Z,20.50
2022-10-05T09:44:40.636Z,20.60
2022-10-05T09:47:13.423Z,20.60
2022-10-05T09:49:50.863Z,20.50
2022-10-05T09:52:36.680Z,20.50
2022-10-05T09:55:14.345Z,20.50
2022-10-05T09:57:45.256Z,20.50
2022-10-05T10:00:22.540Z,20.50
2022-10-05T10:02:49.622Z,20.50
2022-10-05T10:05:31.882Z,20.50
2022-10-05T10:08:04.616Z,20.50
2022-10-05T10:10:34.466Z,20.50
2022-10-05T10:13:20.389Z,20.40
2022-10-05T10:16:03.003Z,20.40
2022-10-05T10:18:45.878Z,20.40
2022-10-05T10:21:15.956Z,20.40
2022-10-05T10:23:58.973Z,20.40
2022-10-05T10:26:45.937Z,20.40
2022-10-05T10:29:28.197Z,20.40
2022-10-05T10:32:01.527Z,20.40
2022-10-05T10:34:34.793Z,20.30
2022-10-05T10:37:28.108Z,20.20
2022-10-05T10:40:13.994Z,20.10
2022-10-05T10:42:44.074Z,20.10
2022-10-05T10:45:22.754Z,20.00
2022-10-05T10:48:11.304Z,20.00
2022-10-05T10:50:44.185Z,20.10
2022-10-05T10:53:28.338Z,20.20
2022-10-05T10:56:13.926Z,20.20
2022-10-05T10:58:57.052Z,20.20
2022-10-05T11:01:30.008Z,20.20
2022-10-05T11:03:59.788Z,20.20
2022-10-05T11:06:45.644Z,20.20
2022-10-05T11:09:18.821Z,20.30
2022-10-05T11:12:04.430Z,20.30
2022-10-05T11:14:47.726Z,20.30
2022-10-05T11:17:33.501Z,20.30
2022-10-05T11:20:15.901Z,20.30
2022-10-05T11:22:51.995Z,20.30
2022-10-05T11:25:37.372Z,20.40
2022-10-05T11:28:35.529Z,20.40
2022-10-05T11:31:12.254Z,20.40
2022-10-05T11:33:42.769Z,20.40
2022-10-05T11:36:25.703Z,20.40
2022-10-05T11:39:18.216Z,20.30
2022-10-05T11:41:45.626Z,20.30
2022-10-05T11:44:12.764Z,20.30
2022-10-05T11:46:39.875Z,20.30
2022-10-05T11:49:25.349Z,20.30
2022-10-05T11:52:06.301Z,20.30
2022-10-05T11:54:52.062Z,20.20
2022-10-05T11:57:26.064Z,20.30
2022-10-05T11:59:56.146Z,20.30
2022-10-05T12:02:43.601Z,20.30
2022-10-05T12:05:23.954Z,20.30
2022-10-05T12:08:00.721Z,20.30
2022-10-05T12:10:35.461Z,20.30
2022-10-05T12:13:05.483Z,20.20
2022-10-05T12:15:41.447Z,20.30
2022-10-05T12:18:17.800Z,20.30
2022-10-05T12:21:14.824Z,20.30
2022-10-05T12:23:57.053Z,20.30
2022-10-05T12:26:27.163Z,20.30
2022-10-05T12:28:57.614Z,20.30
2022-10-05T12:31:30.712Z,20.30
2022-10-05T12:34:08.618Z,20.30
2022-10-05T12:36:59.713Z,20.30
2022-10-05T12:39:28.801Z,20.30
2022-10-05T12:41:55.973Z,20.30
2022-10-05T12:44:35.652Z,20.30
2022-10-05T12:47:14.128Z,20.30
2022-10-05T12:49:52.417Z,20.30
2022-10-05T12:52:28.170Z,20.40
2022-10-05T12:55:26.201Z,20.40
2022-10-05T12:58:00.692Z,20.40
2022-10-05T13:00:29.908Z,20.40
2022-10-05T13:02:59.979Z,20.40
2022-10-05T13:05:39.008Z,20.40
2022-10-05T13:08:13.471Z,20.50
2022-10-05T13:10:46.652Z,20.40
2022-10-05T13:13:20.370Z,20.50
2022-10-05T13:15:47.420Z,20.50
2022-10-05T13:18:28.812Z,20.50
2022-10-05T13:21:02.653Z,20.50
2022-10-05T13:23:41.080Z,20.50
2022-10-05T13:26:15.113Z,20.60
2022-10-05T13:28:42.379Z,20.60
2022-10-05T13:31:14.875Z,20.60
2022-10-05T13:33:58.132Z,20.60
2022-10-05T13:36:48.324Z,20.70
2022-10-05T13:39:20.965Z,20.70
2022-10-05T13:41:48.534Z,20.70
2022-10-05T13:44:25.701Z,20.70
2022-10-05T13:47:16.852Z,20.70
2022-10-05T13:49:51.215Z,20.60
2022-10-05T13:52:28.050Z,20.60
2022-10-05T13:54:58.060Z,20.60
2022-10-05T13:57:34.496Z,20.50
2022-10-05T14:00:13.323Z,20.50
2022-10-05T14:02:41.717Z,20.50
2022-10-05T14:05:16.276Z,20.50
2022-10-05T14:07:51.389Z,20.50
2022-10-05T14:10:38.212Z,20.50
2022-10-05T14:13:17.212Z,20.50
2022-10-05T14:15:55.500Z,20.50
2022-10-05T14:18:27.353Z,20.50
2022-10-05T14:20:58.327Z,20.50
2022-10-05T14:23:27.031Z,20.40
2022-10-05T14:25:54.396Z,20.40
2022-10-05T14:28:30.628Z,20.40
2022-10-05T14:31:01.767Z,20.40
2022-10-05T14:33:30.464Z,20.40
2022-10-05T14:35:58.468Z,20.40
2022-10-05T14:38:28.675Z,20.40
2022-10-05T14:41:08.057Z,20.40
2022-10-05T14:43:35.124Z,20.40
2022-10-05T14:46:13.644Z,20.40
2022-10-05T14:48:42.364Z,20.40
2022-10-05T14:51:10.727Z,20.40
2022-10-05T14:53:45.534Z,20.40
2022-10-05T14:56:18.511Z,20.40
2022-10-05T14:58:45.517Z,20.40
2022-10-05T15:01:18.940Z,20.40
2022-10-05T15:04:04.799Z,20.40
2022-10-05T15:07:00.632Z,20.40
2022-10-05T15:09:33.016Z,20.40
2022-10-05T15:12:01.152Z,20.60
2022-10-05T15:14:36.802Z,20.80
2022-10-05T15:17:12.420Z,21.00
2022-10-05T15:19:50.863Z,21.10
2022-10-05T15:22:28.424Z,21.30
2022-10-05T15:25:10.954Z,21.40
2022-10-05T15:27:53.868Z,21.50
2022-10-05T15:30:22.200Z,21.60
2022-10-05T15:32:58.458Z,21.70
2022-10-05T15:35:40.899Z,21.80
2022-10-05T15:38:37.225Z,21.80
2022-10-05T15:41:07.001Z,21.80
2022-10-05T15:43:52.484Z,21.90
2022-10-05T15:46:24.024Z,21.80
2022-10-05T15:49:09.730Z,21.90
2022-10-05T15:51:55.650Z,21.90
2022-10-05T15:54:58.365Z,21.90
2022-10-05T15:57:36.011Z,21.90
2022-10-05T16:00:15.248Z,21.90
2022-10-05T16:03:01.203Z,21.90
2022-10-05T16:06:02.327Z,21.80
2022-10-05T16:08:50.516Z,21.80
2022-10-05T16:11:25.964Z,21.80
2022-10-05T16:14:06.013Z,21.80
2022-10-05T16:16:44.715Z,21.80
2022-10-05T16:19:12.501Z,21.70
2022-10-05T16:21:46.319Z,21.70
2022-10-05T16:24:19.851Z,21.70
2022-10-05T16:26:53.591Z,21.70
2022-10-05T16:29:29.590Z,21.60
2022-10-05T16:32:10.011Z,21.70
2022-10-05T16:34:49.476Z,21.70
2022-10-05T16:37:42.796Z,21.60
2022-10-05T16:40:29.872Z,21.60
2022-10-05T16:42:59.986Z,21.60
2022-10-05T16:45:45.136Z,21.60
2022-10-05T16:48:33.160Z,21.60
2022-10-05T16:51:02.169Z,21.50
2022-10-05T16:53:32.964Z,21.50
2022-10-05T16:56:06.027Z,21.50
2022-10-05T16:58:39.287Z,21.50
2022-10-05T17:01:06.271Z,21.50
2022-10-05T17:03:39.888Z,21.50
2022-10-05T17:06:26.679Z,21.40
2022-10-05T17:09:11.302Z,21.40
2022-10-05T17:11:52.841Z,21.40
2022-10-05T17:14:32.342Z,21.40
2022-10-05T17:17:18.848Z,21.40
2022-10-05T17:19:48.886Z,21.40
2022-10-05T17:22:25.034Z,21.40
2022-10-05T17:24:52.116Z,21.40
2022-10-05T17:27:37.686Z,21.50
2022-10-05T17:30:21.921Z,21.50
2022-10-05T17:32:55.389Z,21.50
2022-10-05T17:35:40.925Z,21.60
2022-10-05T17:38:27.256Z,21.60
2022-10-05T17:41:00.791Z,21.70
2022-10-05T17:43:28.728Z,21.70
2022-10-05T17:45:56.906Z,21.80
2022-10-05T17:48:39.078Z,21.80
2022-10-05T17:51:34.319Z,21.80
2022-10-05T17:54:36.589Z,21.80
2022-10-05T17:57:04.494Z,21.80
2022-10-05T17:59:37.326Z,21.80
2022-10-05T18:02:13.544Z,21.80
2022-10-05T18:04:42.182Z,21.80
2022-10-05T18:07:19.689Z,21.80
2022-10-05T18:09:52.654Z,21.80
2022-10-05T18:12:24.152Z,21.70
2022-10-05T18:14:57.401Z,21.70
2022-10-05T18:17:36.553Z,21.70
2022-10-05T18:20:26.924Z,21.60
2022-10-05T18:23:03.299Z,21.70
2022-10-05T18:25:49.217Z,21.60
2022-10-05T18:28:25.041Z,21.60
2022-10-05T18:30:59.001Z,21.60
2022-10-05T18:33:44.966Z,21.60
2022-10-05T18:36:42.855Z,21.50
2022-10-05T18:39:28.700Z,21.50
2022-10-05T18:42:00.251Z,21.50
2022-10-05T18:44:31.817Z,21.50
2022-10-05T18:47:01.858Z,21.50
2022-10-05T18:49:41.364Z,21.50
2022-10-05T18:52:18.249Z,21.40
2022-10-05T18:54:59.431Z,21.40
2022-10-05T18:57:34.260Z,21.40
2022-10-05T19:00:11.351Z,21.40
2022-10-05T19:02:42.954Z,21.40
2022-10-05T19:05:46.849Z,21.30
2022-10-05T19:08:36.418Z,21.30
2022-10-05T19:11:18.231Z,21.30
2022-10-05T19:13:59.402Z,21.30
2022-10-05T19:16:45.351Z,21.30
2022-10-05T19:19:15.163Z,21.20
2022-10-05T19:21:46.693Z,21.20
2022-10-05T19:24:23.523Z,21.20
2022-10-05T19:26:56.641Z,21.20
2022-10-05T19:29:47.052Z,21.20
2022-10-05T19:32:37.244Z,21.20
2022-10-05T19:35:22.172Z,21.10
2022-10-05T19:37:55.102Z,21.10
2022-10-05T19:40:27.276Z,21.10
2022-10-05T19:43:06.540Z,21.10
2022-10-05T19:45:36.854Z,21.10
2022-10-05T19:48:03.933Z,21.10
2022-10-05T19:50:33.498Z,21.10
2022-10-05T19:53:12.713Z,21.00
2022-10-05T19:55:41.619Z,21.00
2022-10-05T19:58:20.837Z,21.00
2022-10-05T20:00:55.476Z,21.00
2022-10-05T20:03:27.460Z,21.00
2022-10-05T20:05:56.351Z,20.90
2022-10-05T20:08:27.443Z,20.90
2022-10-05T20:11:10.195Z,20.90
2022-10-05T20:13:39.057Z,20.90
2022-10-05T20:16:31.196Z,20.90
2022-10-05T20:19:17.084Z,20.90
2022-10-05T20:21:48.696Z,20.90
2022-10-05T20:24:15.748Z,20.80
2022-10-05T20:27:02.400Z,20.80
2022-10-05T20:29:30.258Z,20.80
2022-10-05T20:31:57.554Z,20.80
2022-10-05T20:34:24.676Z,20.80
2022-10-05T20:36:51.708Z,20.80
2022-10-05T20:39:19.319Z,20.80
2022-10-05T20:41:46.372Z,20.80
2022-10-05T20:44:13.871Z,20.80
2022-10-05T20:46:45.861Z,20.80
2022-10-05T20:49:13.010Z,20.80
2022-10-05T20:51:40.159Z,20.80
2022-10-05T20:54:07.691Z,20.80
2022-10-05T20:56:34.754Z,20.70
2022-10-05T20:59:01.791Z,20.70
2022-10-05T21:01:30.279Z,20.70
2022-10-05T21:03:57.646Z,20.70
2022-10-05T21:06:28.551Z,20.70
2022-10-05T21:08:55.614Z,20.70
2022-10-05T21:11:22.778Z,20.70
2022-10-05T21:13:49.930Z,20.70
2022-10-05T21:16:18.371Z,20.70
2022-10-05T21:18:49.435Z,20.60
2022-10-05T21:21:17.242Z,20.70
2022-10-05T21:23:44.879Z,20.70
2022-10-05T21:26:12.237Z,20.70
2022-10-05T21:28:39.889Z,20.60
2022-10-05T21:31:07.892Z,20.60
2022-10-05T21:33:35.373Z,20.60
2022-10-05T21:36:02.691Z,20.60
2022-10-05T21:38:30.073Z,20.60
2022-10-05T21:40:57.473Z,20.60
2022-10-05T21:43:24.834Z,20.60
2022-10-05T21:45:53.833Z,20.60
2022-10-05T21:48:21.055Z,20.60
2022-10-05T21:50:48.112Z,20.60
2022-10-05T21:53:16.679Z,20.60
2022-10-05T21:55:45.266Z,20.60
2022-10-05T21:58:13.605Z,20.60
2022-10-05T22:00:41.117Z,20.50
2022-10-05T22:03:08.731Z,20.50
2022-10-05T22:05:36.501Z,20.50
2022-10-05T22:08:04.701Z,20.50
2022-10-05T22:10:31.976Z,20.50
2022-10-05T22:13:01.034Z,20.50
2022-10-05T22:15:31.093Z,20.50
2022-10-05T22:17:59.603Z,20.50
2022-10-05T22:20:26.911Z,20.50
2022-10-05T22:22:53.995Z,20.50
2022-10-05T22:25:21.604Z,20.50
2022-10-05T22:27:49.166Z,20.50
2022-10-05T22:30:16.243Z,20.40
2022-10-05T22:32:43.597Z,20.40
2022-10-05T22:35:11.847Z,20.40
2022-10-05T22:37:39.126Z,20.40
2022-10-05T22:40:07.258Z,20.40
2022-10-05T22:42:34.755Z,20.40
2022-10-05T22:45:01.773Z,20.40
2022-10-05T22:47:28.865Z,20.40
2022-10-05T22:49:55.965Z,20.40
2022-10-05T22:52:23.121Z,20.40
2022-10-05T22:54:50.180Z,20.40
2022-10-05T22:57:17.626Z,20.40
2022-10-05T22:59:44.776Z,20.40
2022-10-05T23:02:13.881Z,20.40
2022-10-05T23:04:40.971Z,20.40
2022-10-05T23:07:08.050Z,20.40
2022-10-05T23:09:35.238Z,20.40
2022-10-05T23:12:02.344Z,20.30
2022-10-05T23:14:30.734Z,20.30
2022-10-05T23:16:57.839Z,20.30
2022-10-05T23:19:25.001Z,20.30
2022-10-05T23:21:52.049Z,20.30
2022-10-05T23:24:19.054Z,20.30
2022-10-05T23:26:46.108Z,20.30
2022-10-05T23:29:13.155Z,20.30
2022-10-05T23:31:40.195Z,20.30
2022-10-05T23:34:07.260Z,20.30
2022-10-05T23:36:34.490Z,20.20
2022-10-05T23:39:01.532Z,20.30
2022-10-05T23:41:28.649Z,20.30
2022-10-05T23:43:55.807Z,20.20
2022-10-05T23:46:23.118Z,20.30
2022-10-05T23:48:50.325Z,20.20
2022-10-05T23:51:17.669Z,20.20
2022-10-05T23:53:44.735Z,20.20
2022-10-05T23:56:12.236Z,20.20
2022-10-05T23:58:39.773Z,20.20
